Time;durP1;ratioP1;P1;durP2;ratioP2;P2;SDS_P1;SDS_P2;PMS_P1;PMS_P2;Temp;Humidity;BMP_temperature;BMP_pressure;BME280_temperature;BME280_humidity;BME280_pressure;Samples;Min_cycle;Max_cycle;Signal;HPM_P1;HPM_P2
2022/05/16 00:01:17;;;;;;;12.55;4.75;;;;;;;7.30;94.65;100146.92;1747746;82;21170;-69
2022/05/16 00:03:45;;;;;;;13.95;5.92;;;;;;;7.25;95.49;100145.72;1747948;82;21069;-69
2022/05/16 00:06:12;;;;;;;19.92;7.28;;;;;;;7.19;96.26;100145.85;1747955;82;21004;-70
2022/05/16 00:08:40;;;;;;;21.07;7.15;;;;;;;7.14;97.22;100149.03;1747871;82;22278;-70
2022/05/16 00:11:08;;;;;;;12.13;5.72;;;;;;;7.10;97.86;100152.16;1748050;82;21097;-69
2022/05/16 00:13:37;;;;;;;14.23;6.75;;;;;;;7.07;98.18;100150.07;1735887;82;21100;-70
2022/05/16 00:16:04;;;;;;;20.02;8.10;;;;;;;7.03;98.42;100151.88;1718288;83;21050;-70
2022/05/16 00:18:33;;;;;;;18.42;6.70;;;;;;;6.99;98.86;100149.36;1718424;83;21093;-70
2022/05/16 00:20:59;;;;;;;15.25;6.00;;;;;;;6.97;99.43;100153.77;1718403;83;21081;-70
2022/05/16 00:23:26;;;;;;;19.23;7.87;;;;;;;6.92;99.90;100158.68;1691677;83;21045;-69
2022/05/16 00:25:52;;;;;;;22.82;7.25;;;;;;;6.87;100.00;100157.89;1718359;83;21254;-69
2022/05/16 00:28:20;;;;;;;16.42;7.03;;;;;;;6.85;100.00;100156.20;1718320;83;21549;-69
2022/05/16 00:30:48;;;;;;;14.90;5.53;;;;;;;6.82;100.00;100161.06;1718212;83;21008;-69
2022/05/16 00:33:16;;;;;;;13.13;5.35;;;;;;;6.79;100.00;100158.52;1718380;83;21093;-70
2022/05/16 00:35:43;;;;;;;14.80;6.78;;;;;;;6.75;100.00;100158.16;1718156;83;21060;-69
2022/05/16 00:38:10;;;;;;;14.43;5.90;;;;;;;6.71;100.00;100156.50;1718388;83;21887;-69
2022/05/16 00:40:36;;;;;;;14.68;6.53;;;;;;;6.67;100.00;100162.68;1718464;83;21053;-69
2022/05/16 00:43:07;;;;;;;13.18;6.70;;;;;;;6.61;100.00;100157.59;1718300;83;21056;-69
2022/05/16 00:45:33;;;;;;;16.23;7.35;;;;;;;6.56;100.00;100162.92;1718313;83;21040;-69
2022/05/16 00:48:00;;;;;;;16.77;7.80;;;;;;;6.50;100.00;100161.27;1718464;83;21541;-69
2022/05/16 00:50:27;;;;;;;22.27;8.35;;;;;;;6.45;100.00;100169.66;1718325;83;21123;-70
2022/05/16 00:52:55;;;;;;;21.73;9.00;;;;;;;6.42;100.00;100168.84;1718215;83;21006;-70
2022/05/16 00:55:29;;;;;;;23.38;8.30;;;;;;;6.39;100.00;100171.08;1709100;83;21582;-69
2022/05/16 00:58:00;;;;;;;24.45;9.03;;;;;;;6.36;100.00;100167.67;1704954;84;20989;-71
2022/05/16 01:00:31;;;;;;;;;;;;;;;6.34;100.00;100166.39;1707468;84;21026;-69
2022/05/16 01:05:48;;;;;;;15.85;8.20;;;;;;;6.28;100.00;100173.03;1705034;84;21077;-69
2022/05/16 01:08:17;;;;;;;25.90;8.18;;;;;;;6.24;100.00;100168.77;1704982;84;21045;-70
2022/05/16 01:10:44;;;;;;;16.05;6.72;;;;;;;6.21;100.00;100172.73;1704874;84;21066;-70
2022/05/16 01:13:10;;;;;;;18.15;6.87;;;;;;;6.19;100.00;100177.13;1711827;82;21120;-69
2022/05/16 01:15:44;;;;;;;16.90;6.22;;;;;;;6.15;100.00;100176.34;1734230;82;21062;-69
2022/05/16 01:18:14;;;;;;;17.07;7.00;;;;;;;6.12;100.00;100172.48;1734050;82;21049;-69
2022/05/16 01:21:01;;;;;;;16.17;6.80;;;;;;;6.07;100.00;100169.06;1734156;82;21117;-69
2022/05/16 01:23:30;;;;;;;19.00;7.47;;;;;;;6.03;100.00;100172.19;1734249;82;21026;-69
2022/05/16 01:25:57;;;;;;;16.90;8.28;;;;;;;6.00;100.00;100165.69;1734047;82;21050;-69
2022/05/16 01:28:24;;;;;;;18.48;7.42;;;;;;;5.95;100.00;100163.61;1734194;82;21135;-69
2022/05/16 01:30:54;;;;;;;14.85;7.72;;;;;;;5.91;100.00;100164.52;1734104;82;21018;-69
2022/05/16 01:33:23;;;;;;;21.37;7.97;;;;;;;5.89;100.00;100162.40;1734306;82;21760;-68
2022/05/16 01:35:50;;;;;;;29.25;9.13;;;;;;;5.86;100.00;100159.81;1738201;81;21038;-69
2022/05/16 01:38:21;;;;;;;17.42;7.75;;;;;;;5.82;100.00;100162.05;1734218;82;21034;-70
2022/05/16 01:40:56;;;;;;;13.28;6.35;;;;;;;5.80;100.00;100162.55;1734126;82;21070;-68
2022/05/16 01:43:28;;;;;;;13.93;6.60;;;;;;;5.77;100.00;100167.36;1733849;82;21058;-68
2022/05/16 01:45:55;;;;;;;17.45;7.17;;;;;;;5.74;100.00;100167.88;1734504;82;21030;-70
2022/05/16 01:48:22;;;;;;;14.18;6.70;;;;;;;5.68;100.00;100167.09;1734188;82;21065;-70
2022/05/16 01:50:50;;;;;;;16.50;7.55;;;;;;;5.63;100.00;100168.89;1734293;82;21045;-69
2022/05/16 01:53:17;;;;;;;17.95;7.03;;;;;;;5.59;100.00;100167.24;1734250;82;21864;-71
2022/05/16 01:55:43;;;;;;;19.27;8.58;;;;;;;5.56;100.00;100165.97;1733850;82;21050;-70
2022/05/16 01:58:10;;;;;;;17.92;8.48;;;;;;;5.54;100.00;100170.34;1734174;82;22084;-68
2022/05/16 02:00:37;;;;;;;18.15;7.60;;;;;;;5.52;100.00;100170.84;1733965;82;21050;-69
2022/05/16 02:03:05;;;;;;;26.45;9.23;;;;;;;5.49;100.00;100169.56;1734195;82;21050;-69
2022/05/16 02:05:32;;;;;;;19.05;8.23;;;;;;;5.46;100.00;100166.56;1734229;82;21234;-69
2022/05/16 02:08:00;;;;;;;27.67;9.40;;;;;;;5.45;100.00;100165.27;1734132;82;21662;-69
2022/05/16 02:10:28;;;;;;;20.08;8.23;;;;;;;5.44;100.00;100167.47;1734409;82;21022;-69
2022/05/16 02:12:58;;;;;;;22.70;8.80;;;;;;;5.43;100.00;100165.77;1734305;82;21030;-69
2022/05/16 02:15:27;;;;;;;19.37;8.53;;;;;;;5.40;100.00;100169.70;1734323;82;21089;-69
2022/05/16 02:17:54;;;;;;;24.12;9.53;;;;;;;5.37;100.00;100169.31;1733997;82;21132;-69
2022/05/16 02:20:21;;;;;;;18.32;8.58;;;;;;;5.37;100.00;100172.37;1734049;82;21015;-69
2022/05/16 02:25:37;;;;;;;16.60;7.15;;;;;;;5.32;100.00;100175.50;1734070;82;21081;-69
2022/05/16 02:28:06;;;;;;;24.52;8.70;;;;;;;5.32;100.00;100178.97;1734419;82;21100;-68
2022/05/16 02:30:32;;;;;;;22.50;8.63;;;;;;;5.32;100.00;100178.12;1734207;82;21715;-70
2022/05/16 02:32:59;;;;;;;21.37;8.88;;;;;;;5.32;100.00;100172.89;1734067;82;21046;-69
2022/05/16 02:35:26;;;;;;;24.30;8.95;;;;;;;5.33;100.00;100173.30;1734557;82;21027;-70
2022/05/16 02:37:52;;;;;;;21.95;10.00;;;;;;;5.31;100.00;100176.37;1734096;82;21183;-69
2022/05/16 02:40:18;;;;;;;21.82;8.93;;;;;;;5.29;100.00;100171.61;1734229;82;21054;-69
2022/05/16 02:42:45;;;;;;;18.25;8.35;;;;;;;5.29;100.00;100176.83;1734284;82;21901;-69
2022/05/16 02:45:12;;;;;;;21.85;8.40;;;;;;;5.28;100.00;100175.13;1734204;82;21653;-69
2022/05/16 02:47:39;;;;;;;20.25;8.00;;;;;;;5.30;100.00;100181.19;1733965;82;21051;-69
2022/05/16 02:50:06;;;;;;;18.62;7.70;;;;;;;5.30;100.00;100182.50;1734054;82;21057;-69
2022/05/16 02:52:34;;;;;;;24.37;8.65;;;;;;;5.31;100.00;100184.20;1734018;82;21055;-68
2022/05/16 02:55:02;;;;;;;22.65;8.23;;;;;;;5.33;100.00;100183.75;1737581;81;21274;-69
2022/05/16 02:57:30;;;;;;;20.65;8.15;;;;;;;5.37;100.00;100184.13;1747801;82;21045;-68
2022/05/16 02:59:57;;;;;;;20.05;8.93;;;;;;;5.44;100.00;100185.76;1748063;82;21093;-69
2022/05/16 03:02:25;;;;;;;29.18;8.88;;;;;;;5.52;100.00;100183.91;1748213;82;21077;-69
2022/05/16 03:04:53;;;;;;;20.43;7.90;;;;;;;5.62;100.00;100182.00;1748093;82;21127;-69
2022/05/16 03:07:19;;;;;;;17.48;7.55;;;;;;;5.73;100.00;100184.00;1748392;82;21228;-69
2022/05/16 03:09:47;;;;;;;23.38;9.10;;;;;;;5.86;100.00;100180.72;1747884;82;21058;-69
2022/05/16 03:12:15;;;;;;;20.52;9.58;;;;;;;5.99;100.00;100192.73;1747986;82;21101;-70
2022/05/16 03:14:43;;;;;;;26.10;8.55;;;;;;;6.13;100.00;100189.87;1722151;82;21049;-70
2022/05/16 03:17:09;;;;;;;19.10;8.88;;;;;;;6.29;100.00;100195.70;1718381;83;21025;-69
2022/05/16 03:19:36;;;;;;;27.52;9.20;;;;;;;6.45;100.00;100190.59;1718413;83;21195;-70
2022/05/16 03:22:04;;;;;;;20.15;9.00;;;;;;;6.63;100.00;100184.59;1738247;82;21499;-68
2022/05/16 03:24:32;;;;;;;22.32;8.28;;;;;;;6.80;100.00;100184.24;1748070;82;21054;-68
2022/05/16 03:27:00;;;;;;;27.13;10.28;;;;;;;7.04;100.00;100185.47;1748172;82;21102;-68
2022/05/16 03:29:26;;;;;;;25.57;10.08;;;;;;;7.34;100.00;100178.25;1747925;82;21672;-70
2022/05/16 03:31:54;;;;;;;29.87;11.68;;;;;;;7.95;100.00;100179.83;1747814;82;21953;-70
2022/05/16 03:34:21;;;;;;;25.57;10.70;;;;;;;8.78;100.00;100180.23;1747994;82;21064;-69
2022/05/16 03:36:48;;;;;;;27.60;10.85;;;;;;;9.63;100.00;100173.72;1748145;82;21038;-69
2022/05/16 03:41:59;;;;;;;26.73;10.98;;;;;;;11.15;97.48;100174.94;1748184;82;21093;-69
2022/05/16 03:44:26;;;;;;;23.20;10.20;;;;;;;11.93;91.64;100175.78;1748164;82;21086;-69
2022/05/16 03:46:54;;;;;;;22.52;10.00;;;;;;;12.50;87.95;100179.10;1747940;82;21057;-68
2022/05/16 03:49:21;;;;;;;27.70;10.68;;;;;;;13.00;84.59;100170.67;1748362;82;21093;-69
2022/05/16 03:51:47;;;;;;;29.23;11.50;;;;;;;13.50;82.45;100168.75;1748023;82;21038;-69
2022/05/16 03:54:17;;;;;;;23.92;10.08;;;;;;;13.97;79.55;100166.88;1748225;82;21127;-68
2022/05/16 03:56:42;;;;;;;24.15;10.80;;;;;;;14.40;76.14;100164.69;1736445;81;21578;-69
2022/05/16 03:59:11;;;;;;;25.00;10.88;;;;;;;14.84;73.45;100161.48;1733970;82;20999;-70
2022/05/16 04:01:39;;;;;;;24.50;10.45;;;;;;;15.18;69.95;100160.94;1733975;82;21030;-70
2022/05/16 04:04:06;;;;;;;24.67;11.10;;;;;;;15.36;67.82;100158.21;1734372;82;21011;-69
2022/05/16 04:09:40;;;;;;;29.07;11.53;;;;;;;15.62;63.63;100162.91;1795692;79;22654;-69
2022/05/16 04:12:09;;;;;;;28.83;12.10;;;;;;;15.72;63.02;100165.43;1756327;81;21057;-70
2022/05/16 04:14:37;;;;;;;27.37;10.98;;;;;;;15.91;61.34;100162.55;1751429;81;21141;-70
2022/05/16 04:17:04;;;;;;;27.37;11.15;;;;;;;16.09;60.87;100168.59;1729836;82;21046;-70
2022/05/16 04:19:30;;;;;;;25.32;10.30;;;;;;;16.27;59.44;100169.78;1720765;83;21109;-69
2022/05/16 04:21:57;;;;;;;21.35;9.43;;;;;;;16.41;57.92;100167.62;1720318;83;21104;-69
2022/05/16 04:24:24;;;;;;;21.62;10.05;;;;;;;16.60;57.04;100158.88;1720355;83;21611;-69
2022/05/16 04:26:51;;;;;;;19.65;9.83;;;;;;;16.77;56.33;100165.36;1720374;83;21222;-70
2022/05/16 04:29:18;;;;;;;23.18;9.53;;;;;;;16.91;55.58;100163.65;1720402;82;21008;-70
2022/05/16 04:31:45;;;;;;;22.70;9.80;;;;;;;17.06;54.46;100169.83;1720336;83;21112;-71
2022/05/16 04:34:11;;;;;;;24.80;10.18;;;;;;;17.17;53.56;100162.86;1720810;83;21704;-69
2022/05/16 04:36:39;;;;;;;24.32;8.83;;;;;;;17.37;53.73;100158.92;1720279;83;21086;-71
2022/05/16 04:39:06;;;;;;;18.02;8.98;;;;;;;17.72;51.43;100155.76;1720825;83;22107;-71
2022/05/16 04:44:18;;;;;;;19.27;8.15;;;;;;;18.22;46.07;100146.20;1720725;83;21080;-71
2022/05/16 04:46:45;;;;;;;22.32;8.23;;;;;;;18.37;45.50;100148.27;1720222;82;21042;-70
2022/05/16 04:49:12;;;;;;;17.82;8.13;;;;;;;18.44;43.86;100151.37;1720412;83;21027;-70
2022/05/16 04:51:39;;;;;;;15.58;7.08;;;;;;;18.43;43.88;100160.34;1720230;83;22330;-69
2022/05/16 04:54:06;;;;;;;19.40;7.58;;;;;;;18.39;43.27;100157.51;1720541;83;21072;-72
2022/05/16 04:56:33;;;;;;;19.40;8.13;;;;;;;18.54;43.18;100161.78;1720319;83;21132;-72
2022/05/16 04:59:00;;;;;;;18.05;7.53;;;;;;;18.89;42.78;100150.93;1720440;83;21033;-70
2022/05/16 05:01:26;;;;;;;17.40;6.83;;;;;;;19.28;42.27;100148.56;1720375;83;21088;-70
2022/05/16 05:03:53;;;;;;;18.25;7.45;;;;;;;19.46;41.16;100149.00;1720404;83;21273;-70
2022/05/16 05:06:20;;;;;;;20.43;6.90;;;;;;;19.57;40.64;100145.55;1720689;83;21049;-71
2022/05/16 05:08:47;;;;;;;13.78;6.55;;;;;;;19.59;39.76;100149.80;1713863;83;21617;-70
2022/05/16 05:16:44;;;;;;;13.03;6.08;;;;;;;20.12;38.14;100141.41;1713505;82;21817;-70
2022/05/16 05:19:10;;;;;;;14.28;5.50;;;;;;;20.31;37.90;100141.71;1713380;83;21053;-70
2022/05/16 05:21:38;;;;;;;16.70;5.33;;;;;;;20.56;36.51;100142.48;1712854;82;21096;-70
2022/05/16 05:24:05;;;;;;;18.00;5.35;;;;;;;20.73;36.15;100147.37;1712963;83;21056;-68
2022/05/16 05:26:33;;;;;;;10.15;5.45;;;;;;;20.59;35.54;100142.27;1712987;82;21218;-70
2022/05/16 05:29:01;;;;;;;9.78;4.97;;;;;;;20.58;35.83;100143.22;1713006;82;21248;-71
2022/05/16 05:31:28;;;;;;;12.30;5.03;;;;;;;20.64;35.69;100145.42;1713022;82;21081;-71
2022/05/16 05:33:55;;;;;;;11.97;4.90;;;;;;;20.78;35.16;100143.48;1713143;82;21085;-71
2022/05/16 05:36:23;;;;;;;12.95;4.58;;;;;;;20.81;35.31;100145.91;1713192;82;21083;-70
2022/05/16 05:38:51;;;;;;;7.62;4.33;;;;;;;20.66;35.32;100144.81;1713324;83;21024;-71
2022/05/16 05:41:21;;;;;;;9.75;4.30;;;;;;;20.37;34.47;100147.55;1712980;82;21270;-70
2022/05/16 05:43:47;;;;;;;10.70;4.87;;;;;;;20.09;35.34;100146.51;1713188;83;21050;-70
2022/05/16 05:46:14;;;;;;;9.88;5.20;;;;;;;19.78;35.85;100146.63;1713049;82;21086;-70
2022/05/16 05:48:40;;;;;;;9.05;5.10;;;;;;;19.64;36.68;100144.12;1713113;83;21049;-70
2022/05/16 05:51:07;;;;;;;12.60;4.92;;;;;;;19.64;36.94;100154.31;1712898;82;21593;-69
2022/05/16 05:53:37;;;;;;;6.28;3.60;;;;;;;19.70;36.91;100149.89;1696736;82;21204;-69
2022/05/16 05:56:02;;;;;;;10.90;4.08;;;;;;;19.31;36.59;100145.66;1684418;84;21022;-70
2022/05/16 05:58:29;;;;;;;6.47;3.60;;;;;;;19.10;37.29;100147.23;1684279;85;21088;-70
2022/05/16 06:00:55;;;;;;;4.97;2.83;;;;;;;18.89;36.79;100151.81;1684557;84;21057;-69
2022/05/16 06:03:22;;;;;;;5.08;2.62;;;;;;;18.72;36.76;100156.11;1684035;84;21049;-71
2022/05/16 06:05:49;;;;;;;7.50;2.55;;;;;;;18.56;36.67;100151.84;1684301;85;21160;-70
2022/05/16 06:08:16;;;;;;;7.58;2.52;;;;;;;18.35;37.29;100153.34;1686031;84;21100;-71
2022/05/16 06:10:42;;;;;;;6.90;2.85;;;;;;;18.15;38.07;100150.25;1697051;84;21052;-70
2022/05/16 06:13:09;;;;;;;6.58;2.75;;;;;;;18.08;38.38;100158.25;1701990;83;21124;-70
2022/05/16 06:15:37;;;;;;;6.58;2.12;;;;;;;17.97;38.71;100150.16;1720281;82;21064;-71
2022/05/16 06:18:04;;;;;;;5.90;2.33;;;;;;;17.89;39.21;100154.66;1720404;83;21862;-70
2022/05/16 06:20:31;;;;;;;7.15;2.30;;;;;;;17.82;39.21;100153.36;1720197;82;21053;-71
2022/05/16 06:22:58;;;;;;;5.72;1.85;;;;;;;17.75;39.14;100154.21;1720339;83;21056;-70
2022/05/16 06:25:31;;;;;;;4.65;2.12;;;;;;;17.64;39.54;100157.22;1720575;82;21588;-70
2022/05/16 06:28:11;;;;;;;4.62;2.00;;;;;;;17.50;39.82;100156.78;1720180;82;21545;-70
2022/05/16 06:30:41;;;;;;;12.37;2.22;;;;;;;17.43;39.83;100158.14;1720406;83;21890;-71
2022/05/16 06:33:07;;;;;;;46.85;4.83;;;;;;;17.33;40.09;100157.89;1720262;82;21076;-71
2022/05/16 06:35:35;;;;;;;6.58;2.42;;;;;;;17.21;40.68;100160.88;1720380;83;21699;-69
2022/05/16 06:38:09;;;;;;;6.35;1.70;;;;;;;17.28;40.66;100164.84;1720387;83;21049;-69
2022/05/16 06:40:38;;;;;;;4.67;2.05;;;;;;;17.34;39.54;100156.45;1726225;83;21064;-70
2022/05/16 06:43:05;;;;;;;2.60;1.57;;;;;;;17.34;39.71;100156.45;1726110;83;21244;-70
2022/05/16 06:45:33;;;;;;;6.25;1.70;;;;;;;17.30;39.28;100159.41;1725820;81;21053;-70
2022/05/16 06:48:01;;;;;;;2.90;1.50;;;;;;;17.33;39.60;100160.07;1726063;82;21096;-71
2022/05/16 06:50:29;;;;;;;4.35;1.50;;;;;;;17.50;39.35;100158.12;1725721;83;21139;-71
2022/05/16 06:52:56;;;;;;;7.78;1.47;;;;;;;17.64;39.32;100160.72;1725846;82;21089;-70
2022/05/16 06:55:23;;;;;;;8.10;1.90;;;;;;;17.77;39.08;100161.63;1726010;83;21816;-72
2022/05/16 06:57:50;;;;;;;60.55;7.78;;;;;;;17.91;38.98;100151.89;1725638;82;21025;-70
2022/05/16 07:00:18;;;;;;;5.87;1.75;;;;;;;18.15;38.70;100150.25;1725789;82;21089;-70
2022/05/16 07:02:46;;;;;;;2.33;1.30;;;;;;;18.69;37.97;100148.33;1725878;82;21112;-71
2022/05/16 07:05:13;;;;;;;3.77;1.20;;;;;;;19.23;36.94;100141.34;1725982;83;21057;-70
2022/05/16 07:07:40;;;;;;;3.05;1.70;;;;;;;19.89;36.44;100140.49;1726145;83;22034;-71
2022/05/16 07:10:07;;;;;;;4.50;1.50;;;;;;;20.54;34.97;100151.08;1715464;82;21580;-71
2022/05/16 07:12:34;;;;;;;2.20;1.02;;;;;;;20.96;34.47;100139.33;1712766;82;21514;-70
2022/05/16 07:15:02;;;;;;;5.10;1.25;;;;;;;21.35;32.51;100135.73;1707051;83;21042;-71
2022/05/16 07:17:29;;;;;;;1.82;1.00;;;;;;;21.56;32.59;100139.34;1707024;83;21069;-70
2022/05/16 07:19:55;;;;;;;2.95;1.07;;;;;;;21.91;31.36;100132.86;1706794;84;21235;-70
2022/05/16 07:22:22;;;;;;;6.08;1.30;;;;;;;21.97;30.00;100133.69;1707032;84;21042;-70
2022/05/16 07:24:51;;;;;;;3.05;1.45;;;;;;;21.56;29.96;100136.67;1706918;84;22294;-70
2022/05/16 07:30:06;;;;;;;2.67;1.10;;;;;;;20.73;30.88;100138.50;1707093;84;21081;-70
2022/05/16 07:32:36;;;;;;;2.27;1.20;;;;;;;20.46;30.94;100141.48;1707366;84;21401;-70
2022/05/16 07:35:04;;;;;;;2.45;1.07;;;;;;;20.52;31.86;100135.17;1706929;83;21053;-70
2022/05/16 07:37:31;;;;;;;2.75;1.15;;;;;;;20.90;32.00;100132.63;1707069;83;21117;-70
2022/05/16 07:39:59;;;;;;;5.62;1.50;;;;;;;21.43;31.47;100127.94;1707080;84;21053;-70
2022/05/16 07:42:26;;;;;;;3.30;1.40;;;;;;;21.91;30.99;100122.14;1706864;82;21105;-71
2022/05/16 07:44:52;;;;;;;3.77;1.80;;;;;;;22.17;31.13;100125.77;1706960;84;22359;-71
2022/05/16 07:47:18;;;;;;;3.90;0.93;;;;;;;22.23;30.08;100122.59;1707168;83;21601;-71
2022/05/16 07:49:45;;;;;;;2.58;0.70;;;;;;;22.28;29.19;100119.02;1706806;84;21570;-70
2022/05/16 07:52:11;;;;;;;3.58;1.27;;;;;;;22.43;27.48;100118.20;1706932;84;21120;-70
2022/05/16 07:54:38;;;;;;;6.87;1.07;;;;;;;22.36;28.35;100109.84;1707269;83;21088;-71
2022/05/16 07:57:05;;;;;;;3.42;1.20;;;;;;;22.48;28.22;100113.28;1706700;84;21091;-69
2022/05/16 07:59:33;;;;;;;2.22;0.90;;;;;;;22.55;28.30;100120.30;1706792;84;21621;-70
2022/05/16 08:02:00;;;;;;;2.25;0.98;;;;;;;22.90;28.36;100109.62;1706931;83;21093;-69
2022/05/16 08:04:27;;;;;;;3.67;1.20;;;;;;;23.30;27.21;100115.47;1707368;84;21056;-70
2022/05/16 08:06:54;;;;;;;2.80;1.00;;;;;;;23.49;27.02;100106.10;1707246;84;21073;-70
2022/05/16 08:12:06;;;;;;;4.53;1.27;;;;;;;23.83;26.86;100100.30;1706831;82;21620;-71
2022/05/16 08:14:33;;;;;;;2.47;1.00;;;;;;;23.50;26.42;100093.00;1711827;83;21101;-69
2022/05/16 08:17:00;;;;;;;3.25;1.20;;;;;;;23.20;26.63;100093.47;1712969;83;21015;-70
2022/05/16 08:19:29;;;;;;;2.72;1.00;;;;;;;22.85;26.91;100095.77;1713088;83;21565;-70
2022/05/16 08:21:55;;;;;;;4.50;1.32;;;;;;;22.64;27.71;100108.77;1713138;83;21145;-71
2022/05/16 08:24:22;;;;;;;2.40;1.10;;;;;;;22.44;27.99;100101.61;1712895;83;20998;-71
2022/05/16 08:26:49;;;;;;;4.47;1.40;;;;;;;22.50;28.51;100105.95;1712756;83;21069;-71
2022/05/16 08:29:15;;;;;;;3.45;1.55;;;;;;;22.69;27.92;100098.46;1712904;82;21053;-73
2022/05/16 08:31:42;;;;;;;4.80;1.50;;;;;;;22.89;27.32;100086.43;1712852;83;21026;-69
2022/05/16 08:34:09;;;;;;;5.15;1.87;;;;;;;22.92;27.25;100084.34;1712866;83;21411;-70
2022/05/16 08:42:09;;;;;;;3.90;2.02;;;;;;;21.97;27.31;100089.45;1712880;83;21081;-70
2022/05/16 08:45:02;;;;;;;10.40;2.35;;;;;;;21.55;28.43;100085.38;1702803;83;21049;-71
2022/05/16 08:47:57;;;;;;;7.10;3.10;;;;;;;21.43;28.96;100089.59;1712566;82;21257;-69
2022/05/16 08:50:32;;;;;;;10.88;3.62;;;;;;;21.14;30.23;100104.38;1713047;82;21026;-71
2022/05/16 08:53:13;;;;;;;9.73;3.85;;;;;;;20.96;30.62;100109.89;1712736;83;21562;-71
2022/05/16 08:55:53;;;;;;;13.85;3.77;;;;;;;20.85;31.21;100109.90;1713458;83;21578;-71
2022/05/16 08:58:35;;;;;;;9.20;3.75;;;;;;;20.99;31.22;100102.94;1712396;83;21700;-71
2022/05/16 09:01:09;;;;;;;7.05;2.42;;;;;;;21.39;31.20;100103.68;1713178;82;21495;-70
2022/05/16 09:03:48;;;;;;;5.75;2.40;;;;;;;21.72;30.92;100111.28;1712260;82;21046;-71
2022/05/16 09:06:21;;;;;;;12.45;2.62;;;;;;;22.07;29.99;100102.07;1713093;82;21085;-71
2022/05/16 09:09:12;;;;;;;6.42;2.02;;;;;;;22.32;30.03;100107.05;1712877;82;21633;-70
2022/05/16 09:12:04;;;;;;;5.17;1.95;;;;;;;22.61;29.98;100097.81;1713047;82;21050;-71
2022/05/16 09:15:07;;;;;;;3.75;1.77;;;;;;;22.67;29.10;100109.83;1679856;83;21302;-71
2022/05/16 09:17:59;;;;;;;7.80;1.82;;;;;;;22.54;29.37;100101.14;1678264;85;21025;-71
2022/05/16 09:20:37;;;;;;;7.17;2.75;;;;;;;22.23;29.45;100113.21;1678649;85;21121;-72
2022/05/16 09:23:19;;;;;;;10.40;3.80;;;;;;;22.00;29.59;100113.31;1678497;84;21402;-69
2022/05/16 09:26:00;;;;;;;10.43;4.83;;;;;;;21.77;29.09;100105.88;1678538;85;21070;-71
2022/05/16 09:28:37;;;;;;;9.65;4.40;;;;;;;21.64;29.36;100110.56;1678399;85;21554;-71
2022/05/16 09:31:14;;;;;;;13.25;4.90;;;;;;;21.66;29.34;100111.28;1678664;85;21238;-74
2022/05/16 09:33:48;;;;;;;14.93;5.30;;;;;;;22.03;28.77;100111.35;1678553;85;21101;-70
2022/05/16 09:36:17;;;;;;;15.43;5.97;;;;;;;22.61;29.11;100095.59;1678823;85;21126;-71
2022/05/16 09:38:44;;;;;;;21.27;7.28;;;;;;;22.98;28.31;100096.34;1678952;85;21069;-72
2022/05/16 09:41:21;;;;;;;18.30;7.70;;;;;;;23.14;27.12;100089.14;1678893;85;21645;-71
2022/05/16 09:44:06;;;;;;;16.17;6.90;;;;;;;23.13;27.32;100107.10;1678589;85;21035;-70
2022/05/16 09:46:40;;;;;;;18.27;7.03;;;;;;;22.99;27.10;100101.63;1678691;85;21077;-71
2022/05/16 09:49:23;;;;;;;12.53;5.47;;;;;;;22.82;27.68;100105.80;1678736;85;21597;-70
2022/05/16 09:51:57;;;;;;;16.25;6.35;;;;;;;22.61;28.25;100096.94;1678710;85;21601;-71
2022/05/16 09:54:28;;;;;;;13.95;5.62;;;;;;;22.23;27.76;100106.50;1678393;85;21851;-71
2022/05/16 09:57:06;;;;;;;12.60;5.62;;;;;;;21.88;28.19;100111.68;1678489;85;21121;-70
2022/05/16 09:59:44;;;;;;;14.20;4.87;;;;;;;21.72;28.62;100109.94;1678464;85;21041;-70
2022/05/16 10:02:24;;;;;;;20.85;5.80;;;;;;;21.85;28.64;100107.90;1678722;85;21252;-69
2022/05/16 10:04:56;;;;;;;14.33;5.55;;;;;;;22.05;27.80;100103.53;1678660;85;21680;-70
2022/05/16 10:07:44;;;;;;;15.13;5.28;;;;;;;22.23;28.53;100098.45;1678539;85;21906;-70
2022/05/16 10:10:15;;;;;;;9.73;4.40;;;;;;;22.39;28.52;100096.14;1683808;83;21057;-70
2022/05/16 10:12:43;;;;;;;9.43;3.20;;;;;;;22.50;27.89;100105.95;1692499;83;21116;-71
2022/05/16 10:15:13;;;;;;;8.05;3.60;;;;;;;22.34;26.34;100099.72;1725834;83;21494;-70
2022/05/16 10:17:43;;;;;;;7.17;3.10;;;;;;;22.29;26.96;100089.89;1726006;82;21025;-71
2022/05/16 10:20:17;;;;;;;9.83;3.62;;;;;;;22.41;27.16;100092.84;1709612;83;21972;-71
2022/05/16 10:22:46;;;;;;;5.05;2.62;;;;;;;22.52;26.98;100090.56;1725831;81;22202;-71
2022/05/16 10:25:19;;;;;;;6.90;2.80;;;;;;;22.48;26.76;100088.28;1725598;82;21112;-71
2022/05/16 10:27:48;;;;;;;8.53;2.47;;;;;;;22.38;26.65;100085.06;1709420;83;21029;-70
2022/05/16 10:30:21;;;;;;;7.17;2.90;;;;;;;22.56;26.31;100083.08;1686363;83;21580;-72
2022/05/16 10:35:47;;;;;;;4.78;2.10;;;;;;;22.88;25.53;100090.12;1725822;83;21054;-71
2022/05/16 10:38:28;;;;;;;7.00;2.90;;;;;;;22.57;26.18;100095.53;1725052;82;21018;-71
2022/05/16 10:40:58;;;;;;;5.90;3.05;;;;;;;22.41;26.63;100086.12;1725897;82;21080;-71
2022/05/16 10:43:51;;;;;;;8.38;2.80;;;;;;;22.42;27.25;100089.66;1725592;83;21033;-71
2022/05/16 10:46:21;;;;;;;6.65;2.62;;;;;;;22.70;26.88;100084.04;1725721;82;21213;-72
2022/05/16 10:49:01;;;;;;;6.45;2.42;;;;;;;22.88;25.90;100076.19;1725506;82;21069;-72
2022/05/16 10:51:50;;;;;;;6.42;2.77;;;;;;;23.11;26.11;100070.13;1726014;83;21057;-70
2022/05/16 10:54:21;;;;;;;5.15;2.10;;;;;;;23.48;26.03;100080.20;1725458;83;21124;-71
2022/05/16 10:57:20;;;;;;;6.65;2.77;;;;;;;23.64;25.30;100085.85;1724734;82;21050;-72
2022/05/16 11:00:07;;;;;;;7.62;2.92;;;;;;;23.57;25.43;100083.38;1725810;82;21806;-71
2022/05/16 11:03:16;;;;;;;8.15;3.10;;;;;;;23.15;24.72;100086.83;1726163;83;21053;-69
2022/05/16 11:06:26;;;;;;;7.47;2.67;;;;;;;23.08;25.29;100077.13;1726273;83;21080;-72
2022/05/16 11:08:59;;;;;;;6.27;2.63;;;;;;;23.36;25.36;100078.65;1725613;81;21734;-71
2022/05/16 11:12:01;;;;;;;8.10;2.72;;;;;;;23.72;25.20;100069.50;1725728;82;21411;-70
2022/05/16 11:14:40;;;;;;;4.97;2.60;;;;;;;23.74;24.24;100066.17;1720071;83;21329;-70
2022/05/16 11:17:24;;;;;;;4.87;2.45;;;;;;;23.61;23.89;100065.14;1720199;83;21064;-71
2022/05/16 11:20:20;;;;;;;6.47;2.08;;;;;;;23.59;24.36;100072.00;1720406;83;21535;-71
2022/05/16 11:22:57;;;;;;;5.05;2.37;;;;;;;23.49;23.95;100056.38;1720020;82;21060;-70
2022/05/16 11:25:35;;;;;;;5.70;2.10;;;;;;;23.33;24.29;100055.59;1719357;83;21112;-70
2022/05/16 11:28:35;;;;;;;3.80;1.77;;;;;;;23.44;24.46;100059.49;1717631;83;21049;-71
2022/05/16 11:31:11;;;;;;;7.80;2.20;;;;;;;23.45;24.38;100072.42;1720461;83;21041;-70
2022/05/16 11:33:54;;;;;;;6.40;2.40;;;;;;;23.40;24.40;100070.66;1720202;83;21060;-72
2022/05/16 11:36:51;;;;;;;3.22;1.82;;;;;;;23.37;24.78;100073.61;1720500;83;21021;-72
2022/05/16 11:39:39;;;;;;;4.15;2.00;;;;;;;23.23;24.06;100075.72;1720088;82;21060;-71
2022/05/16 11:42:55;;;;;;;6.55;2.10;;;;;;;23.11;24.38;100063.41;1720575;82;21136;-69
2022/05/16 11:45:49;;;;;;;5.30;1.80;;;;;;;23.19;23.91;100059.55;1687424;84;21001;-70
2022/05/16 11:48:51;;;;;;;5.37;1.70;;;;;;;23.21;24.41;100047.30;1686480;85;21067;-72
2022/05/16 11:51:59;;;;;;;5.10;1.90;;;;;;;23.28;24.27;100049.77;1712931;83;21068;-70
2022/05/16 11:54:30;;;;;;;4.35;1.95;;;;;;;23.20;24.33;100039.73;1714474;83;21540;-70
2022/05/16 12:02:51;;;;;;;4.25;2.00;;;;;;;22.93;25.88;100043.55;1678566;83;21048;-72
2022/05/16 12:05:26;;;;;;;4.10;1.80;;;;;;;23.01;24.85;100045.10;1719840;83;21069;-71
2022/05/16 12:08:18;;;;;;;3.85;1.82;;;;;;;22.98;25.15;100039.95;1720046;82;21073;-71
2022/05/16 12:11:03;;;;;;;5.37;1.77;;;;;;;22.89;25.11;100035.42;1710700;83;23023;-71
2022/05/16 12:13:39;;;;;;;6.80;2.05;;;;;;;22.78;25.38;100041.27;1713388;83;21105;-71
2022/05/16 12:16:28;;;;;;;5.40;2.17;;;;;;;22.71;25.43;100035.26;1725822;82;21053;-71
2022/05/16 12:19:26;;;;;;;5.75;2.20;;;;;;;22.75;25.04;100036.66;1709814;83;21625;-71
2022/05/16 12:22:03;;;;;;;6.53;2.20;;;;;;;22.67;25.44;100031.98;1725717;83;21108;-71